sensor_id;sensor_type;location;lat;lon;timestamp;P1;durP1;ratioP1;P2;durP2;ratioP2
286;SDS011;127;48.770;9.212;2023-04-03T00:00:07;7.20;;;4.88;;
286;SDS011;127;48.770;9.212;2023-04-03T00:02:41;5.93;;;4.93;;
286;SDS011;127;48.770;9.212;2023-04-03T00:05:16;7.50;;;5.05;;
286;SDS011;127;48.770;9.212;2023-04-03T00:07:46;6.38;;;4.60;;
286;SDS011;127;48.770;9.212;2023-04-03T00:10:21;5.03;;;4.40;;
286;SDS011;127;48.770;9.212;2023-04-03T00:13:01;7.35;;;5.10;;
286;SDS011;127;48.770;9.212;2023-04-03T00:15:33;12.95;;;5.68;;
286;SDS011;127;48.770;9.212;2023-04-03T00:18:02;8.75;;;5.43;;
286;SDS011;127;48.770;9.212;2023-04-03T00:20:36;5.43;;;4.28;;
286;SDS011;127;48.770;9.212;2023-04-03T00:23:07;9.25;;;4.53;;
286;SDS011;127;48.770;9.212;2023-04-03T00:25:39;8.35;;;4.18;;
286;SDS011;127;48.770;9.212;2023-04-03T00:28:10;10.57;;;5.45;;
286;SDS011;127;48.770;9.212;2023-04-03T00:30:45;8.98;;;5.45;;
286;SDS011;127;48.770;9.212;2023-04-03T00:33:16;10.18;;;4.90;;
286;SDS011;127;48.770;9.212;2023-04-03T00:35:53;10.73;;;5.00;;
286;SDS011;127;48.770;9.212;2023-04-03T00:38:21;6.90;;;4.68;;
286;SDS011;127;48.770;9.212;2023-04-03T00:40:57;6.40;;;4.43;;
286;SDS011;127;48.770;9.212;2023-04-03T00:43:39;6.40;;;4.05;;
286;SDS011;127;48.770;9.212;2023-04-03T00:46:22;8.05;;;5.15;;
286;SDS011;127;48.770;9.212;2023-04-03T00:48:53;9.48;;;4.75;;
286;SDS011;127;48.770;9.212;2023-04-03T00:51:25;10.55;;;5.25;;
286;SDS011;127;48.770;9.212;2023-04-03T00:53:56;4.55;;;4.25;;
286;SDS011;127;48.770;9.212;2023-04-03T00:56:31;9.35;;;4.85;;
286;SDS011;127;48.770;9.212;2023-04-03T00:59:04;6.95;;;4.88;;
286;SDS011;127;48.770;9.212;2023-04-03T01:01:38;6.85;;;4.35;;
286;SDS011;127;48.770;9.212;2023-04-03T01:04:24;6.88;;;4.80;;
286;SDS011;127;48.770;9.212;2023-04-03T01:07:02;6.82;;;4.25;;
286;SDS011;127;48.770;9.212;2023-04-03T01:09:36;15.63;;;5.20;;
286;SDS011;127;48.770;9.212;2023-04-03T01:12:16;15.05;;;5.65;;
286;SDS011;127;48.770;9.212;2023-04-03T01:14:51;6.50;;;4.45;;
286;SDS011;127;48.770;9.212;2023-04-03T01:17:28;7.75;;;5.57;;
286;SDS011;127;48.770;9.212;2023-04-03T01:23:05;8.05;;;4.65;;
286;SDS011;127;48.770;9.212;2023-04-03T01:25:42;11.15;;;4.95;;
286;SDS011;127;48.770;9.212;2023-04-03T01:28:17;9.65;;;6.10;;
286;SDS011;127;48.770;9.212;2023-04-03T01:30:50;9.38;;;5.18;;
286;SDS011;127;48.770;9.212;2023-04-03T01:33:27;6.30;;;4.65;;
286;SDS011;127;48.770;9.212;2023-04-03T01:36:00;8.45;;;4.55;;
286;SDS011;127;48.770;9.212;2023-04-03T01:38:33;6.00;;;4.10;;
286;SDS011;127;48.770;9.212;2023-04-03T01:41:03;6.30;;;4.70;;
286;SDS011;127;48.770;9.212;2023-04-03T01:43:37;5.88;;;4.80;;
286;SDS011;127;48.770;9.212;2023-04-03T01:46:05;6.20;;;3.90;;
286;SDS011;127;48.770;9.212;2023-04-03T01:48:37;7.68;;;4.35;;
286;SDS011;127;48.770;9.212;2023-04-03T01:51:09;8.00;;;4.80;;
286;SDS011;127;48.770;9.212;2023-04-03T01:53:38;10.45;;;4.85;;
286;SDS011;127;48.770;9.212;2023-04-03T01:56:11;9.93;;;5.13;;
286;SDS011;127;48.770;9.212;2023-04-03T01:58:39;7.15;;;5.38;;
286;SDS011;127;48.770;9.212;2023-04-03T02:01:08;11.38;;;5.15;;
286;SDS011;127;48.770;9.212;2023-04-03T02:03:42;8.38;;;5.65;;
286;SDS011;127;48.770;9.212;2023-04-03T02:06:11;6.18;;;4.72;;
286;SDS011;127;48.770;9.212;2023-04-03T02:08:42;7.38;;;5.22;;
286;SDS011;127;48.770;9.212;2023-04-03T02:11:12;6.50;;;4.80;;
286;SDS011;127;48.770;9.212;2023-04-03T02:13:41;6.65;;;5.20;;
286;SDS011;127;48.770;9.212;2023-04-03T02:16:10;6.43;;;4.85;;
286;SDS011;127;48.770;9.212;2023-04-03T02:18:42;6.50;;;5.15;;
286;SDS011;127;48.770;9.212;2023-04-03T02:21:13;6.22;;;5.00;;
286;SDS011;127;48.770;9.212;2023-04-03T02:23:41;9.90;;;5.47;;
286;SDS011;127;48.770;9.212;2023-04-03T02:26:13;6.93;;;4.88;;
286;SDS011;127;48.770;9.212;2023-04-03T02:28:43;7.60;;;5.32;;
286;SDS011;127;48.770;9.212;2023-04-03T02:31:12;9.02;;;4.97;;
286;SDS011;127;48.770;9.212;2023-04-03T02:34:01;8.20;;;5.20;;
286;SDS011;127;48.770;9.212;2023-04-03T02:36:37;12.13;;;5.28;;
286;SDS011;127;48.770;9.212;2023-04-03T02:39:12;6.63;;;4.55;;
286;SDS011;127;48.770;9.212;2023-04-03T02:41:42;7.40;;;5.22;;
286;SDS011;127;48.770;9.212;2023-04-03T02:44:13;6.72;;;4.90;;
286;SDS011;127;48.770;9.212;2023-04-03T02:46:47;7.03;;;5.28;;
286;SDS011;127;48.770;9.212;2023-04-03T02:49:23;5.25;;;4.43;;
286;SDS011;127;48.770;9.212;2023-04-03T02:51:53;4.75;;;4.53;;
286;SDS011;127;48.770;9.212;2023-04-03T02:54:32;6.05;;;4.75;;
286;SDS011;127;48.770;9.212;2023-04-03T02:57:03;7.90;;;4.63;;
286;SDS011;127;48.770;9.212;2023-04-03T02:59:33;12.18;;;5.15;;
286;SDS011;127;48.770;9.212;2023-04-03T03:02:10;9.20;;;5.35;;
286;SDS011;127;48.770;9.212;2023-04-03T03:04:58;6.95;;;4.70;;
286;SDS011;127;48.770;9.212;2023-04-03T03:07:31;7.85;;;5.45;;
286;SDS011;127;48.770;9.212;2023-04-03T03:10:12;9.05;;;5.47;;
286;SDS011;127;48.770;9.212;2023-04-03T03:12:41;4.80;;;4.05;;
286;SDS011;127;48.770;9.212;2023-04-03T03:15:13;7.03;;;4.60;;
286;SDS011;127;48.770;9.212;2023-04-03T03:17:44;6.32;;;5.07;;
286;SDS011;127;48.770;9.212;2023-04-03T03:20:18;7.68;;;5.18;;
286;SDS011;127;48.770;9.212;2023-04-03T03:22:51;8.48;;;4.88;;
286;SDS011;127;48.770;9.212;2023-04-03T03:25:21;6.32;;;4.65;;
286;SDS011;127;48.770;9.212;2023-04-03T03:28:08;8.02;;;4.95;;
286;SDS011;127;48.770;9.212;2023-04-03T03:30:39;8.30;;;5.28;;
286;SDS011;127;48.770;9.212;2023-04-03T03:36:00;8.27;;;5.03;;
286;SDS011;127;48.770;9.212;2023-04-03T03:38:36;7.70;;;4.70;;
286;SDS011;127;48.770;9.212;2023-04-03T03:41:21;5.97;;;4.95;;
286;SDS011;127;48.770;9.212;2023-04-03T03:43:58;8.27;;;4.95;;
286;SDS011;127;48.770;9.212;2023-04-03T03:46:28;7.90;;;4.80;;
286;SDS011;127;48.770;9.212;2023-04-03T03:48:59;6.22;;;4.90;;
286;SDS011;127;48.770;9.212;2023-04-03T03:51:32;5.80;;;4.55;;
286;SDS011;127;48.770;9.212;2023-04-03T03:54:00;6.18;;;4.40;;
286;SDS011;127;48.770;9.212;2023-04-03T03:56:29;4.95;;;4.10;;
286;SDS011;127;48.770;9.212;2023-04-03T03:59:05;7.57;;;4.80;;
286;SDS011;127;48.770;9.212;2023-04-03T04:01:37;7.40;;;4.45;;
286;SDS011;127;48.770;9.212;2023-04-03T04:04:06;5.30;;;4.40;;
286;SDS011;127;48.770;9.212;2023-04-03T04:06:46;14.77;;;6.68;;
286;SDS011;127;48.770;9.212;2023-04-03T04:09:25;6.50;;;4.53;;
286;SDS011;127;48.770;9.212;2023-04-03T04:11:57;14.75;;;4.63;;
286;SDS011;127;48.770;9.212;2023-04-03T04:14:26;10.68;;;4.53;;
286;SDS011;127;48.770;9.212;2023-04-03T04:16:56;5.55;;;4.72;;
286;SDS011;127;48.770;9.212;2023-04-03T04:19:25;6.93;;;4.70;;
286;SDS011;127;48.770;9.212;2023-04-03T04:22:07;10.50;;;4.53;;
286;SDS011;127;48.770;9.212;2023-04-03T04:24:39;5.00;;;4.07;;
286;SDS011;127;48.770;9.212;2023-04-03T04:27:08;3.90;;;3.65;;
286;SDS011;127;48.770;9.212;2023-04-03T04:29:40;9.77;;;4.18;;
286;SDS011;127;48.770;9.212;2023-04-03T04:32:17;5.50;;;4.60;;
286;SDS011;127;48.770;9.212;2023-04-03T04:35:02;4.35;;;4.10;;
286;SDS011;127;48.770;9.212;2023-04-03T04:37:39;6.13;;;4.07;;
286;SDS011;127;48.770;9.212;2023-04-03T04:40:26;8.10;;;3.90;;
286;SDS011;127;48.770;9.212;2023-04-03T04:42:57;9.25;;;5.00;;
286;SDS011;127;48.770;9.212;2023-04-03T04:45:26;5.15;;;3.88;;
286;SDS011;127;48.770;9.212;2023-04-03T04:48:15;3.50;;;3.30;;
286;SDS011;127;48.770;9.212;2023-04-03T04:50:54;6.07;;;4.35;;
286;SDS011;127;48.770;9.212;2023-04-03T04:53:33;12.77;;;4.22;;
286;SDS011;127;48.770;9.212;2023-04-03T04:56:17;8.15;;;3.72;;
286;SDS011;127;48.770;9.212;2023-04-03T04:58:48;5.28;;;4.30;;
286;SDS011;127;48.770;9.212;2023-04-03T05:01:22;8.15;;;4.55;;
286;SDS011;127;48.770;9.212;2023-04-03T05:03:58;6.30;;;4.03;;
286;SDS011;127;48.770;9.212;2023-04-03T05:06:40;4.00;;;3.30;;
286;SDS011;127;48.770;9.212;2023-04-03T05:09:13;4.15;;;3.55;;
286;SDS011;127;48.770;9.212;2023-04-03T05:11:48;7.18;;;3.60;;
286;SDS011;127;48.770;9.212;2023-04-03T05:14:37;5.80;;;4.10;;
286;SDS011;127;48.770;9.212;2023-04-03T05:20:28;4.72;;;3.78;;
286;SDS011;127;48.770;9.212;2023-04-03T05:23:00;6.18;;;4.10;;
286;SDS011;127;48.770;9.212;2023-04-03T05:28:20;8.20;;;4.15;;
286;SDS011;127;48.770;9.212;2023-04-03T05:30:52;6.70;;;3.63;;
286;SDS011;127;48.770;9.212;2023-04-03T05:33:22;6.22;;;3.88;;
286;SDS011;127;48.770;9.212;2023-04-03T05:35:56;4.90;;;3.85;;
286;SDS011;127;48.770;9.212;2023-04-03T05:38:29;11.82;;;4.75;;
286;SDS011;127;48.770;9.212;2023-04-03T05:41:01;10.73;;;4.57;;
286;SDS011;127;48.770;9.212;2023-04-03T05:43:33;8.70;;;4.72;;
286;SDS011;127;48.770;9.212;2023-04-03T05:46:09;7.63;;;4.30;;
286;SDS011;127;48.770;9.212;2023-04-03T05:48:44;9.48;;;4.43;;
286;SDS011;127;48.770;9.212;2023-04-03T05:51:17;7.28;;;4.40;;
286;SDS011;127;48.770;9.212;2023-04-03T05:53:54;6.57;;;4.72;;
286;SDS011;127;48.770;9.212;2023-04-03T05:56:30;9.75;;;4.65;;
286;SDS011;127;48.770;9.212;2023-04-03T05:58:58;11.55;;;4.50;;
286;SDS011;127;48.770;9.212;2023-04-03T06:01:27;14.23;;;4.93;;
286;SDS011;127;48.770;9.212;2023-04-03T06:04:08;12.18;;;4.80;;
286;SDS011;127;48.770;9.212;2023-04-03T06:06:48;6.70;;;4.43;;
286;SDS011;127;48.770;9.212;2023-04-03T06:09:27;12.02;;;4.50;;
286;SDS011;127;48.770;9.212;2023-04-03T06:12:02;6.10;;;5.10;;
286;SDS011;127;48.770;9.212;2023-04-03T06:14:32;7.65;;;4.40;;
286;SDS011;127;48.770;9.212;2023-04-03T06:17:02;8.15;;;4.60;;
286;SDS011;127;48.770;9.212;2023-04-03T06:19:32;7.85;;;4.47;;
286;SDS011;127;48.770;9.212;2023-04-03T06:22:02;8.35;;;4.18;;
286;SDS011;127;48.770;9.212;2023-04-03T06:24:38;7.55;;;4.15;;
286;SDS011;127;48.770;9.212;2023-04-03T07:49:17;11.90;;;4.10;;
286;SDS011;127;48.770;9.212;2023-04-03T07:52:17;5.60;;;3.70;;
286;SDS011;127;48.770;9.212;2023-04-03T07:55:19;4.37;;;3.60;;
286;SDS011;127;48.770;9.212;2023-04-03T07:57:56;6.63;;;4.13;;
286;SDS011;127;48.770;9.212;2023-04-03T08:00:36;4.03;;;3.30;;
286;SDS011;127;48.770;9.212;2023-04-03T08:03:34;6.73;;;3.73;;
286;SDS011;127;48.770;9.212;2023-04-03T08:06:10;4.53;;;3.40;;
286;SDS011;127;48.770;9.212;2023-04-03T08:08:59;5.93;;;3.57;;
286;SDS011;127;48.770;9.212;2023-04-03T08:11:42;22.37;;;3.50;;
286;SDS011;127;48.770;9.212;2023-04-03T08:14:22;6.53;;;3.60;;
286;SDS011;127;48.770;9.212;2023-04-03T08:17:07;5.90;;;3.83;;
286;SDS011;127;48.770;9.212;2023-04-03T08:19:38;5.27;;;3.80;;
286;SDS011;127;48.770;9.212;2023-04-03T08:22:27;11.70;;;4.23;;
286;SDS011;127;48.770;9.212;2023-04-03T08:25:30;6.50;;;3.77;;
286;SDS011;127;48.770;9.212;2023-04-03T08:32:08;12.73;;;4.80;;
286;SDS011;127;48.770;9.212;2023-04-03T08:34:46;6.40;;;4.00;;
286;SDS011;127;48.770;9.212;2023-04-03T08:37:34;7.60;;;4.20;;
286;SDS011;127;48.770;9.212;2023-04-03T08:40:12;4.93;;;4.00;;
286;SDS011;127;48.770;9.212;2023-04-03T08:42:58;6.50;;;4.53;;
286;SDS011;127;48.770;9.212;2023-04-03T08:45:59;10.53;;;4.00;;
286;SDS011;127;48.770;9.212;2023-04-03T08:48:52;10.93;;;4.03;;
286;SDS011;127;48.770;9.212;2023-04-03T08:51:44;9.40;;;4.67;;
286;SDS011;127;48.770;9.212;2023-04-03T08:54:40;4.30;;;4.00;;
286;SDS011;127;48.770;9.212;2023-04-03T08:57:25;4.80;;;3.43;;
286;SDS011;127;48.770;9.212;2023-04-03T09:00:13;7.13;;;4.03;;
286;SDS011;127;48.770;9.212;2023-04-03T09:06:20;7.17;;;3.93;;
286;SDS011;127;48.770;9.212;2023-04-03T09:09:07;7.50;;;3.70;;
286;SDS011;127;48.770;9.212;2023-04-03T09:11:55;6.50;;;4.43;;
286;SDS011;127;48.770;9.212;2023-04-03T09:14:36;4.10;;;3.73;;
286;SDS011;127;48.770;9.212;2023-04-03T09:17:14;8.83;;;3.87;;
286;SDS011;127;48.770;9.212;2023-04-03T09:20:12;6.47;;;3.70;;
286;SDS011;127;48.770;9.212;2023-04-03T09:23:13;9.63;;;3.97;;
286;SDS011;127;48.770;9.212;2023-04-03T09:25:47;17.47;;;4.90;;
286;SDS011;127;48.770;9.212;2023-04-03T09:28:28;3.30;;;3.10;;
286;SDS011;127;48.770;9.212;2023-04-03T09:31:00;6.00;;;3.77;;
286;SDS011;127;48.770;9.212;2023-04-03T09:33:33;5.80;;;3.67;;
286;SDS011;127;48.770;9.212;2023-04-03T09:36:07;5.83;;;3.37;;
286;SDS011;127;48.770;9.212;2023-04-03T09:39:10;5.37;;;3.30;;
286;SDS011;127;48.770;9.212;2023-04-03T09:41:55;6.97;;;3.50;;
286;SDS011;127;48.770;9.212;2023-04-03T09:44:30;8.30;;;3.80;;
286;SDS011;127;48.770;9.212;2023-04-03T09:47:23;9.73;;;3.90;;
286;SDS011;127;48.770;9.212;2023-04-03T09:50:18;4.70;;;3.50;;
286;SDS011;127;48.770;9.212;2023-04-03T09:52:56;6.77;;;3.80;;
286;SDS011;127;48.770;9.212;2023-04-03T09:56:24;8.27;;;3.60;;
286;SDS011;127;48.770;9.212;2023-04-03T09:59:20;3.23;;;3.03;;
286;SDS011;127;48.770;9.212;2023-04-03T10:02:33;5.70;;;3.73;;
286;SDS011;127;48.770;9.212;2023-04-03T10:08:23;5.33;;;3.47;;
286;SDS011;127;48.770;9.212;2023-04-03T10:11:09;4.97;;;3.43;;
286;SDS011;127;48.770;9.212;2023-04-03T10:14:16;6.70;;;3.50;;
286;SDS011;127;48.770;9.212;2023-04-03T10:17:13;8.37;;;3.77;;
286;SDS011;127;48.770;9.212;2023-04-03T10:20:26;4.50;;;3.40;;
286;SDS011;127;48.770;9.212;2023-04-03T10:23:38;8.40;;;4.13;;
286;SDS011;127;48.770;9.212;2023-04-03T10:26:49;9.80;;;5.30;;
286;SDS011;127;48.770;9.212;2023-04-03T10:29:59;10.13;;;3.60;;
286;SDS011;127;48.770;9.212;2023-04-03T10:36:19;4.70;;;3.60;;
286;SDS011;127;48.770;9.212;2023-04-03T10:39:04;8.50;;;3.77;;
286;SDS011;127;48.770;9.212;2023-04-03T10:42:32;10.57;;;3.60;;
286;SDS011;127;48.770;9.212;2023-04-03T10:45:31;8.23;;;3.63;;
286;SDS011;127;48.770;9.212;2023-04-03T10:48:36;4.97;;;3.30;;
286;SDS011;127;48.770;9.212;2023-04-03T10:51:24;10.43;;;4.20;;
286;SDS011;127;48.770;9.212;2023-04-03T10:54:04;5.23;;;3.77;;
286;SDS011;127;48.770;9.212;2023-04-03T10:56:49;9.23;;;3.60;;
286;SDS011;127;48.770;9.212;2023-04-03T10:59:31;5.80;;;3.50;;
286;SDS011;127;48.770;9.212;2023-04-03T11:02:11;10.97;;;3.70;;
286;SDS011;127;48.770;9.212;2023-04-03T11:04:50;8.90;;;3.63;;
286;SDS011;127;48.770;9.212;2023-04-03T11:10:21;6.90;;;3.33;;
286;SDS011;127;48.770;9.212;2023-04-03T11:12:58;5.63;;;2.90;;
286;SDS011;127;48.770;9.212;2023-04-03T11:15:39;7.63;;;3.17;;
286;SDS011;127;48.770;9.212;2023-04-03T11:18:17;4.30;;;3.10;;
286;SDS011;127;48.770;9.212;2023-04-03T11:20:53;10.10;;;3.00;;
286;SDS011;127;48.770;9.212;2023-04-03T11:23:39;3.90;;;2.40;;
286;SDS011;127;48.770;9.212;2023-04-03T11:26:41;3.93;;;3.07;;
286;SDS011;127;48.770;9.212;2023-04-03T11:29:12;6.00;;;2.47;;
286;SDS011;127;48.770;9.212;2023-04-03T11:31:53;3.53;;;3.00;;
286;SDS011;127;48.770;9.212;2023-04-03T11:34:36;5.00;;;2.50;;
286;SDS011;127;48.770;9.212;2023-04-03T11:37:16;8.40;;;2.73;;
286;SDS011;127;48.770;9.212;2023-04-03T11:42:55;8.00;;;2.97;;
286;SDS011;127;48.770;9.212;2023-04-03T11:45:55;13.77;;;3.40;;
286;SDS011;127;48.770;9.212;2023-04-03T12:00:50;6.97;;;3.00;;
286;SDS011;127;48.770;9.212;2023-04-03T12:13:15;4.87;;;3.17;;
286;SDS011;127;48.770;9.212;2023-04-03T12:15:47;5.30;;;3.43;;
286;SDS011;127;48.770;9.212;2023-04-03T12:18:31;8.40;;;3.67;;
286;SDS011;127;48.770;9.212;2023-04-03T12:21:19;5.40;;;2.90;;
286;SDS011;127;48.770;9.212;2023-04-03T12:24:02;5.00;;;3.27;;
286;SDS011;127;48.770;9.212;2023-04-03T12:26:38;4.83;;;3.10;;
286;SDS011;127;48.770;9.212;2023-04-03T12:29:27;6.73;;;3.77;;
286;SDS011;127;48.770;9.212;2023-04-03T12:32:26;8.90;;;3.10;;
286;SDS011;127;48.770;9.212;2023-04-03T12:35:24;6.10;;;2.90;;
286;SDS011;127;48.770;9.212;2023-04-03T12:41:21;7.77;;;3.17;;
286;SDS011;127;48.770;9.212;2023-04-03T12:47:15;3.73;;;2.80;;
286;SDS011;127;48.770;9.212;2023-04-03T12:49:52;4.73;;;2.97;;
286;SDS011;127;48.770;9.212;2023-04-03T12:52:30;3.83;;;2.53;;
286;SDS011;127;48.770;9.212;2023-04-03T12:55:14;3.13;;;2.80;;
286;SDS011;127;48.770;9.212;2023-04-03T13:01:01;2.87;;;2.67;;
286;SDS011;127;48.770;9.212;2023-04-03T13:03:53;7.60;;;2.63;;
286;SDS011;127;48.770;9.212;2023-04-03T13:06:44;8.17;;;3.30;;
286;SDS011;127;48.770;9.212;2023-04-03T13:09:39;4.50;;;3.10;;
286;SDS011;127;48.770;9.212;2023-04-03T13:16:08;5.00;;;2.23;;
286;SDS011;127;48.770;9.212;2023-04-03T13:28:32;7.80;;;3.07;;
286;SDS011;127;48.770;9.212;2023-04-03T13:31:43;4.80;;;3.03;;
286;SDS011;127;48.770;9.212;2023-04-03T13:38:22;5.57;;;3.13;;
286;SDS011;127;48.770;9.212;2023-04-03T14:08:33;3.40;;;2.70;;
286;SDS011;127;48.770;9.212;2023-04-03T14:11:13;4.53;;;2.80;;
286;SDS011;127;48.770;9.212;2023-04-03T14:14:28;4.70;;;2.80;;
286;SDS011;127;48.770;9.212;2023-04-03T14:17:10;6.60;;;3.23;;
286;SDS011;127;48.770;9.212;2023-04-03T14:19:57;6.07;;;3.77;;
286;SDS011;127;48.770;9.212;2023-04-03T14:22:45;4.13;;;3.40;;
286;SDS011;127;48.770;9.212;2023-04-03T14:28:16;8.50;;;3.73;;
286;SDS011;127;48.770;9.212;2023-04-03T14:30:48;4.90;;;2.90;;
286;SDS011;127;48.770;9.212;2023-04-03T14:33:23;11.37;;;3.07;;
286;SDS011;127;48.770;9.212;2023-04-03T14:36:46;4.83;;;2.83;;
286;SDS011;127;48.770;9.212;2023-04-03T14:39:25;5.50;;;2.60;;
286;SDS011;127;48.770;9.212;2023-04-03T14:48:47;6.90;;;2.97;;
286;SDS011;127;48.770;9.212;2023-04-03T14:55:29;2.90;;;2.23;;
286;SDS011;127;48.770;9.212;2023-04-03T15:01:03;7.07;;;3.00;;
286;SDS011;127;48.770;9.212;2023-04-03T15:03:40;4.57;;;2.70;;
286;SDS011;127;48.770;9.212;2023-04-03T15:06:32;4.17;;;3.27;;
286;SDS011;127;48.770;9.212;2023-04-03T15:09:22;3.10;;;2.50;;
286;SDS011;127;48.770;9.212;2023-04-03T15:12:03;4.50;;;3.10;;
286;SDS011;127;48.770;9.212;2023-04-03T15:40:30;3.73;;;3.00;;
286;SDS011;127;48.770;9.212;2023-04-03T15:46:03;3.97;;;2.80;;
286;SDS011;127;48.770;9.212;2023-04-03T15:48:41;3.80;;;3.10;;
286;SDS011;127;48.770;9.212;2023-04-03T15:51:18;4.80;;;3.20;;
286;SDS011;127;48.770;9.212;2023-04-03T15:54:04;4.17;;;2.77;;
286;SDS011;127;48.770;9.212;2023-04-03T15:56:38;6.53;;;2.70;;
286;SDS011;127;48.770;9.212;2023-04-03T15:59:14;5.03;;;2.77;;
286;SDS011;127;48.770;9.212;2023-04-03T16:01:43;3.40;;;2.33;;
286;SDS011;127;48.770;9.212;2023-04-03T16:04:23;5.90;;;2.77;;
286;SDS011;127;48.770;9.212;2023-04-03T16:07:04;7.03;;;2.23;;
286;SDS011;127;48.770;9.212;2023-04-03T16:09:43;3.60;;;2.50;;
286;SDS011;127;48.770;9.212;2023-04-03T16:12:17;10.10;;;3.07;;
286;SDS011;127;48.770;9.212;2023-04-03T16:14:51;5.53;;;3.17;;
286;SDS011;127;48.770;9.212;2023-04-03T16:17:21;7.10;;;2.87;;
286;SDS011;127;48.770;9.212;2023-04-03T16:20:02;5.83;;;2.47;;
286;SDS011;127;48.770;9.212;2023-04-03T16:22:35;10.47;;;2.70;;
286;SDS011;127;48.770;9.212;2023-04-03T16:25:11;7.23;;;2.70;;
286;SDS011;127;48.770;9.212;2023-04-03T16:31:09;3.57;;;2.70;;
286;SDS011;127;48.770;9.212;2023-04-03T16:33:42;4.00;;;2.90;;
286;SDS011;127;48.770;9.212;2023-04-03T16:36:17;5.70;;;2.83;;
286;SDS011;127;48.770;9.212;2023-04-03T16:38:46;3.50;;;2.60;;
286;SDS011;127;48.770;9.212;2023-04-03T16:41:23;3.63;;;2.60;;
286;SDS011;127;48.770;9.212;2023-04-03T16:44:12;5.27;;;3.07;;
286;SDS011;127;48.770;9.212;2023-04-03T16:46:50;4.57;;;2.60;;
286;SDS011;127;48.770;9.212;2023-04-03T16:49:36;3.13;;;3.00;;
286;SDS011;127;48.770;9.212;2023-04-03T16:52:05;5.43;;;2.50;;
286;SDS011;127;48.770;9.212;2023-04-03T16:54:43;4.50;;;2.93;;
286;SDS011;127;48.770;9.212;2023-04-03T16:57:38;8.80;;;3.10;;
286;SDS011;127;48.770;9.212;2023-04-03T17:00:13;8.17;;;3.50;;
286;SDS011;127;48.770;9.212;2023-04-03T17:03:01;5.17;;;2.60;;
286;SDS011;127;48.770;9.212;2023-04-03T17:05:52;7.80;;;2.83;;
286;SDS011;127;48.770;9.212;2023-04-03T17:08:29;4.57;;;2.80;;
286;SDS011;127;48.770;9.212;2023-04-03T17:11:05;5.40;;;2.60;;
286;SDS011;127;48.770;9.212;2023-04-03T17:13:39;4.50;;;2.70;;
286;SDS011;127;48.770;9.212;2023-04-03T17:16:41;4.10;;;3.17;;
286;SDS011;127;48.770;9.212;2023-04-03T17:19:23;5.60;;;3.30;;
286;SDS011;127;48.770;9.212;2023-04-03T17:25:37;3.57;;;3.37;;
286;SDS011;127;48.770;9.212;2023-04-03T17:28:17;4.87;;;3.43;;
286;SDS011;127;48.770;9.212;2023-04-03T17:30:55;5.23;;;3.33;;
286;SDS011;127;48.770;9.212;2023-04-03T17:33:32;3.67;;;2.90;;
286;SDS011;127;48.770;9.212;2023-04-03T17:36:07;3.00;;;2.80;;
286;SDS011;127;48.770;9.212;2023-04-03T17:38:39;6.40;;;3.67;;
286;SDS011;127;48.770;9.212;2023-04-03T17:41:16;5.17;;;3.23;;
286;SDS011;127;48.770;9.212;2023-04-03T17:43:46;6.60;;;3.23;;
286;SDS011;127;48.770;9.212;2023-04-03T17:46:22;8.80;;;3.80;;
286;SDS011;127;48.770;9.212;2023-04-03T17:49:06;4.37;;;3.00;;
286;SDS011;127;48.770;9.212;2023-04-03T17:51:59;3.53;;;3.30;;
286;SDS011;127;48.770;9.212;2023-04-03T17:54:28;5.70;;;3.47;;
286;SDS011;127;48.770;9.212;2023-04-03T17:57:01;3.73;;;3.00;;
286;SDS011;127;48.770;9.212;2023-04-03T17:59:33;6.85;;;3.65;;
286;SDS011;127;48.770;9.212;2023-04-03T18:02:02;7.63;;;4.00;;
286;SDS011;127;48.770;9.212;2023-04-03T18:04:42;5.70;;;3.60;;
286;SDS011;127;48.770;9.212;2023-04-03T18:07:10;16.87;;;4.07;;
286;SDS011;127;48.770;9.212;2023-04-03T18:09:49;3.53;;;3.20;;
286;SDS011;127;48.770;9.212;2023-04-03T18:12:40;4.13;;;3.70;;
286;SDS011;127;48.770;9.212;2023-04-03T18:15:16;5.87;;;4.70;;
286;SDS011;127;48.770;9.212;2023-04-03T18:17:55;9.82;;;3.90;;
286;SDS011;127;48.770;9.212;2023-04-03T18:20:41;3.35;;;3.10;;
286;SDS011;127;48.770;9.212;2023-04-03T18:23:20;13.55;;;3.40;;
286;SDS011;127;48.770;9.212;2023-04-03T18:25:53;5.85;;;3.35;;
286;SDS011;127;48.770;9.212;2023-04-03T18:28:36;4.70;;;3.53;;
286;SDS011;127;48.770;9.212;2023-04-03T18:31:14;6.45;;;3.40;;
286;SDS011;127;48.770;9.212;2023-04-03T18:33:49;4.50;;;3.22;;
286;SDS011;127;48.770;9.212;2023-04-03T18:36:45;6.00;;;4.20;;
286;SDS011;127;48.770;9.212;2023-04-03T18:39:42;7.28;;;3.55;;
286;SDS011;127;48.770;9.212;2023-04-03T18:42:45;7.65;;;4.10;;
286;SDS011;127;48.770;9.212;2023-04-03T18:45:30;4.18;;;3.60;;
286;SDS011;127;48.770;9.212;2023-04-03T18:54:53;7.88;;;3.63;;
286;SDS011;127;48.770;9.212;2023-04-03T18:57:41;10.55;;;3.90;;
286;SDS011;127;48.770;9.212;2023-04-03T19:00:29;7.90;;;4.63;;
286;SDS011;127;48.770;9.212;2023-04-03T19:03:14;4.75;;;3.30;;
286;SDS011;127;48.770;9.212;2023-04-03T19:05:45;8.05;;;4.20;;
286;SDS011;127;48.770;9.212;2023-04-03T19:08:25;3.90;;;3.70;;
286;SDS011;127;48.770;9.212;2023-04-03T19:11:18;8.02;;;4.40;;
286;SDS011;127;48.770;9.212;2023-04-03T19:13:52;7.80;;;4.47;;
286;SDS011;127;48.770;9.212;2023-04-03T19:16:24;10.88;;;3.95;;
286;SDS011;127;48.770;9.212;2023-04-03T19:18:59;8.85;;;3.42;;
286;SDS011;127;48.770;9.212;2023-04-03T19:36:10;10.98;;;4.97;;
286;SDS011;127;48.770;9.212;2023-04-03T19:39:16;8.90;;;5.28;;
286;SDS011;127;48.770;9.212;2023-04-03T19:42:01;7.18;;;4.25;;
286;SDS011;127;48.770;9.212;2023-04-03T19:47:46;7.25;;;4.10;;
286;SDS011;127;48.770;9.212;2023-04-03T19:57:58;5.32;;;3.80;;
286;SDS011;127;48.770;9.212;2023-04-03T20:01:00;4.15;;;3.60;;
286;SDS011;127;48.770;9.212;2023-04-03T20:04:04;4.20;;;3.53;;
286;SDS011;127;48.770;9.212;2023-04-03T20:13:18;6.05;;;3.38;;
286;SDS011;127;48.770;9.212;2023-04-03T20:16:32;10.05;;;4.30;;
286;SDS011;127;48.770;9.212;2023-04-03T20:20:14;5.28;;;3.10;;
286;SDS011;127;48.770;9.212;2023-04-03T20:23:01;13.05;;;4.25;;
286;SDS011;127;48.770;9.212;2023-04-03T20:26:21;9.27;;;3.58;;
286;SDS011;127;48.770;9.212;2023-04-03T20:32:21;4.53;;;3.10;;
286;SDS011;127;48.770;9.212;2023-04-03T20:36:05;4.18;;;3.80;;
286;SDS011;127;48.770;9.212;2023-04-03T20:39:01;3.72;;;3.30;;
286;SDS011;127;48.770;9.212;2023-04-03T20:42:13;8.90;;;3.58;;
286;SDS011;127;48.770;9.212;2023-04-03T20:45:24;7.50;;;3.08;;
286;SDS011;127;48.770;9.212;2023-04-03T20:48:14;5.97;;;3.80;;
286;SDS011;127;48.770;9.212;2023-04-03T20:51:22;8.13;;;3.28;;
286;SDS011;127;48.770;9.212;2023-04-03T20:54:05;5.13;;;3.10;;
286;SDS011;127;48.770;9.212;2023-04-03T20:56:42;9.02;;;3.28;;
286;SDS011;127;48.770;9.212;2023-04-03T21:02:54;9.10;;;3.30;;
286;SDS011;127;48.770;9.212;2023-04-03T21:05:31;8.50;;;3.28;;
286;SDS011;127;48.770;9.212;2023-04-03T21:20:19;9.27;;;3.38;;
286;SDS011;127;48.770;9.212;2023-04-03T21:22:59;4.20;;;2.88;;
286;SDS011;127;48.770;9.212;2023-04-03T21:25:57;8.65;;;3.97;;
286;SDS011;127;48.770;9.212;2023-04-03T21:32:19;6.22;;;3.50;;
286;SDS011;127;48.770;9.212;2023-04-03T21:34:56;3.90;;;3.47;;
286;SDS011;127;48.770;9.212;2023-04-03T21:41:08;4.70;;;2.92;;
286;SDS011;127;48.770;9.212;2023-04-03T21:44:21;4.72;;;2.72;;
286;SDS011;127;48.770;9.212;2023-04-03T21:47:26;5.32;;;2.60;;
286;SDS011;127;48.770;9.212;2023-04-03T21:50:16;9.90;;;2.97;;
286;SDS011;127;48.770;9.212;2023-04-03T21:52:54;4.18;;;2.92;;
286;SDS011;127;48.770;9.212;2023-04-03T21:55:31;4.60;;;2.80;;
286;SDS011;127;48.770;9.212;2023-04-03T21:58:00;5.32;;;3.13;;
286;SDS011;127;48.770;9.212;2023-04-03T22:00:33;6.13;;;3.05;;
286;SDS011;127;48.770;9.212;2023-04-03T22:03:04;4.05;;;3.00;;
286;SDS011;127;48.770;9.212;2023-04-03T22:05:38;4.05;;;3.42;;
286;SDS011;127;48.770;9.212;2023-04-03T22:08:15;5.68;;;3.28;;
286;SDS011;127;48.770;9.212;2023-04-03T22:10:57;10.40;;;4.00;;
286;SDS011;127;48.770;9.212;2023-04-03T22:13:52;13.43;;;4.07;;
286;SDS011;127;48.770;9.212;2023-04-03T22:16:22;11.60;;;4.03;;